Terminal Aerodrome Forecast
Issued by NWS Blacksburg, VA

Current Version | Previous Version | Graphics & Text | Print | Product List | Glossary On
Versions: 1 2 3 4 5 6 7 8 9 10 11 12 13 14 15 16 17 18 19 20
000
FTUS41 KRNK 291405 AAA
TAFBLF
TAF AMD
KBLF 291405Z 2914/3012 26007KT 6SM -RA SCT005 OVC030
     FM291600 29009G18KT P6SM -RA BKN040 OVC090
     FM291800 29011KT P6SM BKN025 BKN100
     FM292100 29007KT P6SM SCT025=

USA.gov is the U.S. government's official web portal to all federal, state and local government web resources and services.